createdAt,value
2023-11-12T00:02:23.619Z,97162.28
2023-11-12T00:04:52.298Z,97151.03
2023-11-12T00:07:19.060Z,97146.38
2023-11-12T00:09:46.006Z,97136.81
2023-11-12T00:12:13.034Z,97134.91
2023-11-12T00:14:47.561Z,97124.56
2023-11-12T00:17:15.242Z,97114.13
2023-11-12T00:19:42.227Z,97110.94
2023-11-12T00:22:09.513Z,97107.25
2023-11-12T00:24:36.308Z,97094.81
2023-11-12T00:27:06.547Z,97103.16
2023-11-12T00:29:35.304Z,97096.63
2023-11-12T00:32:05.224Z,97089.38
2023-11-12T00:34:32.002Z,97080.69
2023-11-12T00:37:06.444Z,97082.25
2023-11-12T00:39:33.443Z,97088.91
2023-11-12T00:42:00.377Z,97094.72
2023-11-12T00:44:27.193Z,97081.78
2023-11-12T00:46:53.967Z,97067.78
2023-11-12T00:49:20.649Z,97065.56
2023-11-12T00:51:49.527Z,97064.75
2023-11-12T00:54:16.207Z,97054.53
2023-11-12T00:56:42.881Z,97053.84
2023-11-12T00:59:14.054Z,97051.72
2023-11-12T01:01:44.793Z,97043.03
2023-11-12T01:04:18.207Z,97041.69
2023-11-12T01:06:44.796Z,97044.22
2023-11-12T01:09:11.425Z,97028.28
2023-11-12T01:11:41.017Z,97035.59
2023-11-12T01:14:08.388Z,97035.59
2023-11-12T01:16:35.898Z,97028.72
2023-11-12T01:19:05.122Z,97020.28
2023-11-12T01:21:31.827Z,97025.38
2023-11-12T01:23:58.753Z,97018.25
2023-11-12T01:26:25.711Z,97018.44
2023-11-12T01:28:52.279Z,97016.69
2023-11-12T01:31:18.896Z,97019.06
2023-11-12T01:33:47.772Z,97027.50
2023-11-12T01:36:14.517Z,97026.72
2023-11-12T01:38:41.075Z,97022.50
2023-11-12T01:43:45.009Z,97025.34
2023-11-12T01:46:15.100Z,97018.63
2023-11-12T01:48:41.904Z,97018.03
2023-11-12T01:51:15.382Z,97023.03
2023-11-12T01:53:42.883Z,97012.88
2023-11-12T01:56:14.741Z,96995.38
2023-11-12T01:58:42.790Z,96990.78
2023-11-12T02:01:09.746Z,96987.00
2023-11-12T02:03:37.528Z,96991.59
2023-11-12T02:06:05.118Z,96987.34
2023-11-12T02:08:34.583Z,96986.59
2023-11-12T02:11:08.641Z,96987.00
2023-11-12T02:13:38.370Z,96979.75
2023-11-12T02:16:05.723Z,96979.69
2023-11-12T02:18:32.487Z,96977.00
2023-11-12T02:20:59.063Z,96975.09
2023-11-12T02:23:27.925Z,96972.00
2023-11-12T02:25:54.596Z,96961.66
2023-11-12T02:28:21.210Z,96964.00
2023-11-12T02:30:47.932Z,96966.66
2023-11-12T02:33:16.541Z,96959.75
2023-11-12T02:35:46.832Z,96950.97
2023-11-12T02:38:13.546Z,96947.84
2023-11-12T02:40:40.259Z,96937.97
2023-11-12T02:43:06.876Z,96936.47
2023-11-12T02:45:35.870Z,96928.91
2023-11-12T02:48:03.162Z,96932.00
2023-11-12T02:50:34.138Z,96923.31
2023-11-12T02:53:02.321Z,96925.63
2023-11-12T02:55:32.539Z,96922.25
2023-11-12T02:57:59.910Z,96913.94
2023-11-12T03:00:29.509Z,96918.97
2023-11-12T03:02:59.635Z,96913.28
2023-11-12T03:05:28.040Z,96904.13
2023-11-12T03:07:54.955Z,96907.13
2023-11-12T03:10:28.466Z,96907.94
2023-11-12T03:12:55.526Z,96899.13
2023-11-12T03:15:25.362Z,96892.66
2023-11-12T03:17:52.968Z,96894.63
2023-11-12T03:20:19.630Z,96895.84
2023-11-12T03:22:50.276Z,96892.03
2023-11-12T03:25:16.921Z,96878.31
2023-11-12T03:27:43.659Z,96877.63
2023-11-12T03:30:10.966Z,96877.63
2023-11-12T03:32:39.483Z,96878.38
2023-11-12T03:35:06.729Z,96874.59
2023-11-12T03:37:33.789Z,96875.34
2023-11-12T03:40:02.568Z,96880.72
2023-11-12T03:42:29.205Z,96875.34
2023-11-12T03:44:58.015Z,96872.78
2023-11-12T03:47:29.941Z,96877.78
2023-11-12T03:49:56.469Z,96875.53
2023-11-12T03:52:23.083Z,96876.28
2023-11-12T03:54:49.931Z,96887.75
2023-11-12T03:57:17.177Z,96886.66
2023-11-12T03:59:58.886Z,96892.44
2023-11-12T04:02:25.495Z,96891.63
2023-11-12T04:04:52.398Z,96882.50
2023-11-12T04:07:19.247Z,96880.59
2023-11-12T04:09:45.927Z,96884.06
2023-11-12T04:12:15.046Z,96886.38
2023-11-12T04:14:43.554Z,96884.81
2023-11-12T04:17:10.179Z,96876.03
2023-11-12T04:19:37.040Z,96878.72
2023-11-12T04:22:03.773Z,96891.63
2023-11-12T04:24:30.594Z,96882.84
2023-11-12T04:26:57.491Z,96878.63
2023-11-12T04:29:26.552Z,96880.19
2023-11-12T04:31:53.191Z,96880.94
2023-11-12T04:34:19.742Z,96878.63
2023-11-12T04:36:48.444Z,96876.66
2023-11-12T04:39:15.132Z,96885.28
2023-11-12T04:41:44.036Z,96878.69
2023-11-12T04:44:12.366Z,96882.81
2023-11-12T04:46:39.417Z,96880.84
2023-11-12T04:49:05.966Z,96881.25
2023-11-12T04:51:35.895Z,96892.03
2023-11-12T04:54:03.757Z,96887.19
2023-11-12T04:56:30.295Z,96892.09
2023-11-12T04:58:58.728Z,96896.59
2023-11-12T05:01:25.630Z,96894.97
2023-11-12T05:03:52.329Z,96891.53
2023-11-12T05:06:19.095Z,96890.41
2023-11-12T05:08:45.678Z,96898.09
2023-11-12T05:11:12.687Z,96906.19
2023-11-12T05:13:46.847Z,96912.13
2023-11-12T05:16:13.422Z,96912.97
2023-11-12T05:18:41.152Z,96910.00
2023-11-12T05:21:08.103Z,96917.00
2023-11-12T05:23:34.988Z,96919.38
2023-11-12T05:26:04.106Z,96930.16
2023-11-12T05:28:32.522Z,96930.59
2023-11-12T05:30:59.306Z,96926.78
2023-11-12T05:33:26.055Z,96935.22
2023-11-12T05:35:54.502Z,96933.34
2023-11-12T05:38:22.020Z,96933.34
2023-11-12T05:40:48.565Z,96939.47
2023-11-12T05:43:15.477Z,96941.03
2023-11-12T05:45:42.048Z,96935.94
2023-11-12T05:48:11.146Z,96933.97
2023-11-12T05:50:41.052Z,96928.19
2023-11-12T05:53:07.608Z,96933.81
2023-11-12T05:55:34.324Z,96930.69
2023-11-12T05:58:03.123Z,96923.81
2023-11-12T06:00:29.908Z,96923.38
2023-11-12T06:02:56.962Z,96908.47
2023-11-12T06:05:25.575Z,96908.03
2023-11-12T06:07:52.192Z,96912.97
2023-11-12T06:10:21.110Z,96905.31
2023-11-12T06:12:47.856Z,96904.09
2023-11-12T06:15:14.437Z,96901.69
2023-11-12T06:17:41.075Z,96896.69
2023-11-12T06:20:12.557Z,96900.47
2023-11-12T06:22:39.122Z,96894.38
2023-11-12T06:25:06.186Z,96895.13
2023-11-12T06:27:36.953Z,96891.00
2023-11-12T06:30:04.337Z,96899.50
2023-11-12T06:32:31.348Z,96908.03
2023-11-12T06:34:59.784Z,96908.88
2023-11-12T06:37:26.579Z,96915.78
2023-11-12T06:39:53.328Z,96925.34
2023-11-12T06:42:22.065Z,96928.47
2023-11-12T06:44:49.092Z,96935.03
2023-11-12T06:47:18.070Z,96946.94
2023-11-12T06:49:46.637Z,96951.13
2023-11-12T06:52:16.909Z,96953.81
2023-11-12T06:54:43.449Z,96954.16
2023-11-12T06:57:10.317Z,96956.06
2023-11-12T06:59:36.917Z,96955.28
2023-11-12T07:02:03.997Z,96956.41
2023-11-12T07:04:38.152Z,96954.09
2023-11-12T07:07:13.929Z,96964.34
2023-11-12T07:09:48.092Z,96967.72
2023-11-12T07:12:16.179Z,96973.06
2023-11-12T07:14:43.191Z,96984.13
2023-11-12T07:17:11.553Z,96986.44
2023-11-12T07:19:38.128Z,96987.56
2023-11-12T07:22:05.822Z,96988.72
2023-11-12T07:24:35.962Z,96999.41
2023-11-12T07:27:03.057Z,96998.97
2023-11-12T07:29:29.815Z,96993.97
2023-11-12T07:31:56.428Z,96999.31
2023-11-12T07:34:24.976Z,96999.31
2023-11-12T07:36:51.605Z,97002.00
2023-11-12T07:39:19.187Z,97005.78
2023-11-12T07:41:47.925Z,97004.25
2023-11-12T07:44:14.554Z,97003.03
2023-11-12T07:46:45.297Z,97003.72
2023-11-12T07:49:13.511Z,97013.63
2023-11-12T07:51:40.262Z,97012.00
2023-11-12T07:54:06.956Z,97016.16
2023-11-12T07:56:39.624Z,97008.03
2023-11-12T07:59:16.457Z,97015.63
2023-11-12T08:01:43.088Z,97016.31
2023-11-12T08:04:10.544Z,97022.44
2023-11-12T08:06:39.493Z,97030.38
2023-11-12T08:09:07.861Z,97021.22
2023-11-12T08:11:41.495Z,97027.72
2023-11-12T08:14:10.240Z,97031.50
2023-11-12T08:16:37.779Z,97028.38
2023-11-12T08:19:04.493Z,97027.63
2023-11-12T08:21:31.473Z,97026.06
2023-11-12T08:24:00.132Z,97025.63
2023-11-12T08:26:30.867Z,97029.75
2023-11-12T08:28:58.772Z,97037.78
2023-11-12T08:31:27.396Z,97043.13
2023-11-12T08:33:54.336Z,97046.56
2023-11-12T08:36:21.017Z,97046.56
2023-11-12T08:38:48.687Z,97038.91
2023-11-12T08:41:15.470Z,97048.47
2023-11-12T08:43:45.456Z,97045.47
2023-11-12T08:46:13.144Z,97053.81
2023-11-12T08:48:44.404Z,97045.81
2023-11-12T08:51:12.374Z,97049.16
2023-11-12T08:53:41.323Z,97049.84
2023-11-12T08:56:13.349Z,97043.66
2023-11-12T08:58:40.131Z,97046.56
2023-11-12T09:01:10.185Z,97060.50
2023-11-12T09:03:38.880Z,97054.22
2023-11-12T09:06:06.381Z,97060.31
2023-11-12T09:08:33.096Z,97060.66
2023-11-12T09:11:01.552Z,97066.00
2023-11-12T09:13:28.142Z,97062.91
2023-11-12T09:15:55.476Z,97067.38
2023-11-12T09:18:28.512Z,97067.63
2023-11-12T09:20:55.408Z,97073.09
2023-11-12T09:23:21.948Z,97075.66
2023-11-12T09:25:51.117Z,97071.00
2023-11-12T09:28:17.830Z,97077.38
2023-11-12T09:30:57.272Z,97083.06
2023-11-12T09:33:29.338Z,97073.41
2023-11-12T09:35:58.059Z,97078.63
2023-11-12T09:38:24.616Z,97073.97
2023-11-12T09:40:55.484Z,97076.63
2023-11-12T09:43:26.378Z,97062.06
2023-11-12T09:45:57.766Z,97073.31
2023-11-12T09:48:37.123Z,97075.56
2023-11-12T09:51:08.450Z,97082.00
2023-11-12T09:53:37.960Z,97073.56
2023-11-12T09:56:11.255Z,97081.13
2023-11-12T09:58:38.698Z,97081.78
2023-11-12T10:01:08.431Z,97074.56
2023-11-12T10:03:37.712Z,97072.22
2023-11-12T10:06:06.965Z,97084.03
2023-11-12T10:08:36.685Z,97075.13
2023-11-12T10:11:22.377Z,97087.34
2023-11-12T10:13:49.862Z,97090.34
2023-11-12T10:16:40.535Z,97081.16
2023-11-12T10:19:15.711Z,97093.38
2023-11-12T10:22:03.606Z,97085.81
2023-11-12T10:24:32.491Z,97092.13
2023-11-12T10:27:09.265Z,97105.38
2023-11-12T10:29:35.817Z,97094.59
2023-11-12T10:32:02.497Z,97085.81
2023-11-12T10:37:20.721Z,97087.59
2023-11-12T10:39:48.186Z,97084.81
2023-11-12T10:42:26.785Z,97086.72
2023-11-12T10:44:57.884Z,97086.72
2023-11-12T10:47:30.644Z,97082.06
2023-11-12T10:49:57.851Z,97078.16
2023-11-12T10:52:24.674Z,97077.41
2023-11-12T10:54:52.969Z,97071.94
2023-11-12T10:57:20.223Z,97071.94
2023-11-12T10:59:49.846Z,97076.50
2023-11-12T11:02:31.589Z,97082.19
2023-11-12T11:04:59.170Z,97075.63
2023-11-12T11:07:25.878Z,97067.16
2023-11-12T11:09:54.798Z,97062.50
2023-11-12T11:12:23.463Z,97054.06
2023-11-12T11:14:50.083Z,97052.50
2023-11-12T11:17:37.804Z,97063.06
2023-11-12T11:20:06.246Z,97058.03
2023-11-12T11:22:33.485Z,97049.28
2023-11-12T11:25:22.535Z,97052.28
2023-11-12T11:27:51.597Z,97054.53
2023-11-12T11:30:18.256Z,97055.63
2023-11-12T11:32:57.530Z,97068.94
2023-11-12T11:35:27.407Z,97063.63
2023-11-12T11:38:10.246Z,97044.50
2023-11-12T11:40:40.485Z,97037.28
2023-11-12T11:43:25.317Z,97032.72
2023-11-12T11:46:13.023Z,97049.84
2023-11-12T11:48:46.349Z,97043.41
2023-11-12T11:51:34.261Z,97046.06
2023-11-12T11:54:15.887Z,97036.97
2023-11-12T11:56:43.109Z,97036.16
2023-11-12T11:59:09.738Z,97046.19
2023-11-12T12:01:44.260Z,97045.06
2023-11-12T12:04:17.036Z,97055.06
2023-11-12T12:06:46.308Z,97043.28
2023-11-12T12:09:18.521Z,97050.50
2023-11-12T12:11:47.685Z,97038.75
2023-11-12T12:14:16.467Z,97029.59
2023-11-12T12:16:47.187Z,97033.84
2023-11-12T12:19:33.342Z,97048.72
2023-11-12T12:22:00.467Z,97036.97
2023-11-12T12:24:27.401Z,97027.41
2023-11-12T12:26:56.539Z,97038.84
2023-11-12T12:29:25.877Z,97037.28
2023-11-12T12:32:01.307Z,97043.41
2023-11-12T12:34:40.351Z,97047.63
2023-11-12T12:37:10.715Z,97046.50
2023-11-12T12:40:12.222Z,97031.72
2023-11-12T12:42:50.852Z,97046.28
2023-11-12T12:45:17.936Z,97031.50
2023-11-12T12:47:45.481Z,97033.84
2023-11-12T12:50:18.154Z,97045.28
2023-11-12T12:52:46.464Z,97040.72
2023-11-12T12:55:18.200Z,97032.06
2023-11-12T12:57:51.759Z,97056.81
2023-11-12T13:00:22.596Z,97030.91
2023-11-12T13:02:56.739Z,97037.81
2023-11-12T13:05:26.688Z,97055.38
2023-11-12T13:07:53.507Z,97049.28
2023-11-12T13:10:24.898Z,97057.59
2023-11-12T13:12:54.045Z,97059.16
2023-11-12T13:15:22.478Z,97056.81
2023-11-12T13:17:49.836Z,97065.59
2023-11-12T13:20:20.989Z,97043.47
2023-11-12T13:22:47.915Z,97065.16
2023-11-12T13:25:16.003Z,97041.16
2023-11-12T13:27:48.507Z,97053.72
2023-11-12T13:30:16.389Z,97055.59
2023-11-12T13:32:43.794Z,97055.16
2023-11-12T13:35:12.793Z,97056.94
2023-11-12T13:37:43.272Z,97061.81
2023-11-12T13:40:16.151Z,97057.97
2023-11-12T13:42:47.901Z,97072.06
2023-11-12T13:45:19.574Z,97061.06
2023-11-12T13:47:46.445Z,97061.06
2023-11-12T13:50:15.407Z,97054.28
2023-11-12T13:52:44.120Z,97073.38
2023-11-12T13:55:20.710Z,97086.38
2023-11-12T13:57:48.652Z,97064.72
2023-11-12T14:00:17.349Z,97073.50
2023-11-12T14:02:46.605Z,97070.16
2023-11-12T14:05:13.496Z,97066.06
2023-11-12T14:07:40.783Z,97073.84
2023-11-12T14:10:13.540Z,97066.25
2023-11-12T14:12:40.236Z,97074.72
2023-11-12T14:15:10.846Z,97070.59
2023-11-12T14:17:42.174Z,97064.16
2023-11-12T14:20:11.283Z,97069.47
2023-11-12T14:22:38.498Z,97077.13
2023-11-12T14:25:10.840Z,97084.03
2023-11-12T14:27:39.230Z,97084.03
2023-11-12T14:30:14.831Z,97067.34
2023-11-12T14:32:41.459Z,97071.59
2023-11-12T14:35:08.069Z,97064.34
2023-11-12T14:37:34.857Z,97066.69
2023-11-12T14:40:06.172Z,97067.13
2023-11-12T14:42:33.125Z,97067.13
2023-11-12T14:44:59.858Z,97071.34
2023-11-12T14:47:29.726Z,97072.91
2023-11-12T14:49:56.328Z,97066.47
2023-11-12T14:52:24.707Z,97077.56
2023-11-12T14:54:54.657Z,97081.44
2023-11-12T14:57:21.216Z,97084.56
2023-11-12T14:59:48.874Z,97087.66
2023-11-12T15:02:15.403Z,97084.66
2023-11-12T15:04:42.321Z,97093.13
2023-11-12T15:07:13.555Z,97087.00
2023-11-12T15:09:41.743Z,97090.88
2023-11-12T15:12:12.562Z,97079.44
2023-11-12T15:14:40.277Z,97088.22
2023-11-12T15:17:07.026Z,97083.22
2023-11-12T15:19:35.909Z,97082.44
2023-11-12T15:22:02.519Z,97074.44
2023-11-12T15:24:29.584Z,97097.66
2023-11-12T15:26:56.254Z,97073.31
2023-11-12T15:29:24.456Z,97093.13
2023-11-12T15:31:51.520Z,97100.78
2023-11-12T15:34:18.173Z,97108.47
2023-11-12T15:36:44.830Z,97104.69
2023-11-12T15:39:11.785Z,97106.22
2023-11-12T15:41:38.484Z,97103.13
2023-11-12T15:44:05.378Z,97111.47
2023-11-12T15:46:31.983Z,97119.13
2023-11-12T15:48:59.963Z,97120.25
2023-11-12T15:51:26.687Z,97116.00
2023-11-12T15:53:53.258Z,97129.03
2023-11-12T15:56:20.149Z,97124.81
2023-11-12T15:58:48.427Z,97135.16
2023-11-12T16:01:15.103Z,97154.94
2023-11-12T16:03:41.832Z,97133.16
2023-11-12T16:06:12.812Z,97152.50
2023-11-12T16:08:51.700Z,97150.16
2023-11-12T16:11:23.138Z,97135.28
2023-11-12T16:13:52.000Z,97140.28
2023-11-12T16:16:18.577Z,97152.50
2023-11-12T16:18:47.226Z,97139.59
2023-11-12T16:21:13.866Z,97151.06
2023-11-12T16:23:40.634Z,97162.53
2023-11-12T16:26:11.690Z,97153.38
2023-11-12T16:28:39.782Z,97169.84
2023-11-12T16:31:08.085Z,97174.09
2023-11-12T16:33:35.136Z,97181.75
2023-11-12T16:36:01.725Z,97181.44
2023-11-12T16:38:31.173Z,97203.53
2023-11-12T16:40:58.008Z,97197.88
2023-11-12T16:43:24.606Z,97196.75
2023-11-12T16:45:51.838Z,97206.34
2023-11-12T16:48:18.765Z,97222.78
2023-11-12T16:50:48.698Z,97233.13
2023-11-12T16:53:15.924Z,97222.91
2023-11-12T16:55:45.240Z,97243.94
2023-11-12T16:58:12.393Z,97235.59
2023-11-12T17:00:39.101Z,97250.03
2023-11-12T17:03:09.796Z,97257.72
2023-11-12T17:05:36.661Z,97250.16
2023-11-12T17:08:05.488Z,97251.06
2023-11-12T17:10:38.512Z,97256.06
2023-11-12T17:13:05.126Z,97270.94
2023-11-12T17:15:32.467Z,97266.41
2023-11-12T17:18:01.518Z,97266.06
2023-11-12T17:20:28.337Z,97263.50
2023-11-12T17:22:54.864Z,97270.84
2023-11-12T17:25:21.643Z,97269.72
2023-11-12T17:27:48.318Z,97269.38
2023-11-12T17:30:15.348Z,97274.84
2023-11-12T17:32:48.099Z,97279.84
2023-11-12T17:35:23.781Z,97281.50
2023-11-12T17:37:54.423Z,97289.53
2023-11-12T17:40:21.139Z,97305.22
2023-11-12T17:42:54.324Z,97288.53
2023-11-12T17:45:21.065Z,97292.41
2023-11-12T17:47:47.683Z,97295.53
2023-11-12T17:50:14.519Z,97293.28
2023-11-12T17:52:41.079Z,97296.41
2023-11-12T17:55:13.489Z,97289.63
2023-11-12T17:57:42.380Z,97287.50
2023-11-12T18:00:10.335Z,97293.63
2023-11-12T18:02:38.773Z,97286.38
2023-11-12T18:05:07.430Z,97295.41
2023-11-12T18:07:35.916Z,97288.13
2023-11-12T18:10:03.556Z,97286.13
2023-11-12T18:12:32.496Z,97296.81
2023-11-12T18:15:00.757Z,97294.16
2023-11-12T18:17:27.316Z,97285.78
2023-11-12T18:19:59.471Z,97296.56
2023-11-12T18:22:27.022Z,97294.09
2023-11-12T18:24:54.067Z,97308.25
2023-11-12T18:27:21.537Z,97314.38
2023-11-12T18:29:48.467Z,97316.72
2023-11-12T18:32:15.132Z,97338.91
2023-11-12T18:34:47.489Z,97325.97
2023-11-12T18:37:17.007Z,97340.97
2023-11-12T18:39:44.249Z,97345.97
2023-11-12T18:42:12.739Z,97349.13
2023-11-12T18:44:39.272Z,97356.78
2023-11-12T18:47:07.090Z,97359.13
2023-11-12T18:49:34.037Z,97371.81
2023-11-12T18:52:04.719Z,97374.28
2023-11-12T18:54:36.327Z,97377.72
2023-11-12T18:57:02.951Z,97366.22
2023-11-12T18:59:29.464Z,97359.41
2023-11-12T19:01:58.053Z,97365.97
2023-11-12T19:04:24.622Z,97369.97
2023-11-12T19:06:51.194Z,97374.63
2023-11-12T19:09:17.955Z,97369.25
2023-11-12T19:11:44.458Z,97373.72
2023-11-12T19:14:12.890Z,97371.38
2023-11-12T19:16:40.718Z,97373.88
2023-11-12T19:19:07.347Z,97369.13
2023-11-12T19:21:37.089Z,97379.91
2023-11-12T19:24:09.219Z,97378.59
2023-11-12T19:26:37.179Z,97369.94
2023-11-12T19:29:03.982Z,97371.47
2023-11-12T19:31:33.802Z,97369.81
2023-11-12T19:34:02.800Z,97365.81
2023-11-12T19:36:29.383Z,97379.38
2023-11-12T19:39:00.376Z,97380.28
2023-11-12T19:41:27.053Z,97385.66
2023-11-12T19:43:54.624Z,97394.91
2023-11-12T19:46:21.457Z,97394.56
2023-11-12T19:48:48.693Z,97387.84
2023-11-12T19:51:18.524Z,97406.53
2023-11-12T19:53:47.782Z,97401.28
2023-11-12T19:56:14.365Z,97399.41
2023-11-12T19:58:41.093Z,97398.75
2023-11-12T20:01:09.557Z,97400.31
2023-11-12T20:03:36.260Z,97399.00
2023-11-12T20:06:03.095Z,97395.28
2023-11-12T20:08:31.408Z,97403.66
2023-11-12T20:10:58.365Z,97414.72
2023-11-12T20:13:24.982Z,97408.28
2023-11-12T20:15:54.591Z,97412.53
2023-11-12T20:18:23.001Z,97407.03
2023-11-12T20:20:49.540Z,97398.97
2023-11-12T20:23:16.110Z,97398.59
2023-11-12T20:25:42.633Z,97389.88
2023-11-12T20:28:14.840Z,97389.66
2023-11-12T20:30:44.451Z,97390.44
2023-11-12T20:33:17.643Z,97392.28
2023-11-12T20:35:50.530Z,97399.81
2023-11-12T20:38:17.151Z,97395.94
2023-11-12T20:40:43.691Z,97397.59
2023-11-12T20:43:14.361Z,97400.78
2023-11-12T20:45:41.842Z,97398.97
2023-11-12T20:48:08.998Z,97415.28
2023-11-12T20:50:38.772Z,97421.44
2023-11-12T20:53:07.382Z,97420.66
2023-11-12T20:55:40.548Z,97418.34
2023-11-12T20:58:08.176Z,97421.97
2023-11-12T21:00:34.893Z,97428.53
2023-11-12T21:03:08.078Z,97426.25
2023-11-12T21:05:35.580Z,97430.88
2023-11-12T21:08:02.136Z,97429.66
2023-11-12T21:10:35.643Z,97432.38
2023-11-12T21:13:02.339Z,97431.59
2023-11-12T21:15:30.296Z,97430.81
2023-11-12T21:17:58.726Z,97448.09
2023-11-12T21:20:25.376Z,97440.78
2023-11-12T21:22:51.900Z,97436.53
2023-11-12T21:25:23.386Z,97432.28
2023-11-12T21:27:53.734Z,97438.03
2023-11-12T21:30:27.850Z,97435.34
2023-11-12T21:32:58.495Z,97436.91
2023-11-12T21:35:26.336Z,97434.97
2023-11-12T21:37:54.881Z,97436.28
2023-11-12T21:40:21.706Z,97444.53
2023-11-12T21:42:48.308Z,97441.56
2023-11-12T21:45:15.288Z,97436.16
2023-11-12T21:47:42.033Z,97432.69
2023-11-12T21:50:10.813Z,97418.81
2023-11-12T21:52:45.826Z,97422.50
2023-11-12T21:55:12.498Z,97435.94
2023-11-12T21:57:39.094Z,97427.41
2023-11-12T22:00:14.210Z,97445.66
2023-11-12T22:02:42.761Z,97448.72
2023-11-12T22:05:13.679Z,97449.66
2023-11-12T22:07:42.204Z,97452.78
2023-11-12T22:10:11.063Z,97449.06
2023-11-12T22:12:39.916Z,97445.94
2023-11-12T22:15:09.623Z,97446.78
2023-11-12T22:17:39.886Z,97445.28
2023-11-12T22:20:07.140Z,97448.00
2023-11-12T22:22:34.069Z,97454.59
2023-11-12T22:25:08.915Z,97446.22
2023-11-12T22:27:43.946Z,97439.00
2023-11-12T22:30:12.352Z,97440.03
2023-11-12T22:32:41.656Z,97444.09
2023-11-12T22:35:13.881Z,97437.66
2023-11-12T22:37:41.143Z,97443.88
2023-11-12T22:40:08.873Z,97444.72
2023-11-12T22:42:40.699Z,97424.25
2023-11-12T22:45:12.482Z,97438.41
2023-11-12T22:47:40.427Z,97442.22
2023-11-12T22:50:10.293Z,97442.63
2023-11-12T22:52:37.433Z,97450.28
2023-11-12T22:55:04.713Z,97456.03
2023-11-12T22:57:33.703Z,97464.50
2023-11-12T23:00:06.189Z,97463.75
2023-11-12T23:02:33.739Z,97472.13
2023-11-12T23:05:00.615Z,97468.22
2023-11-12T23:07:28.892Z,97474.72
2023-11-12T23:10:01.847Z,97481.19
2023-11-12T23:12:28.364Z,97479.63
2023-11-12T23:14:55.263Z,97482.31
2023-11-12T23:17:24.813Z,97491.97
2023-11-12T23:19:53.366Z,97499.25
2023-11-12T23:22:19.963Z,97504.22
2023-11-12T23:24:48.577Z,97500.41
2023-11-12T23:27:21.612Z,97503.09
2023-11-12T23:29:50.244Z,97515.75
2023-11-12T23:32:16.889Z,97516.53
2023-11-12T23:34:59.310Z,97518.50
2023-11-12T23:37:25.907Z,97522.75
2023-11-12T23:39:55.929Z,97538.13
2023-11-12T23:42:26.346Z,97556.59
2023-11-12T23:44:53.471Z,97564.34
2023-11-12T23:47:23.981Z,97554.75
2023-11-12T23:49:50.998Z,97530.94
2023-11-12T23:52:22.735Z,97511.78
2023-11-12T23:54:49.382Z,97510.66
2023-11-12T23:57:16.003Z,97513.06
2023-11-12T23:59:43.467Z,97515.78
